createdAt,value
2023-11-24T00:04:45.525Z,100425.94
2023-11-24T00:14:48.763Z,100486.66
2023-11-24T00:24:53.377Z,100504.78
2023-11-24T00:34:57.775Z,100516.72
2023-11-24T00:45:02.543Z,100509.47
2023-11-24T00:55:06.787Z,100502.03
2023-11-24T01:05:15.456Z,100517.66
2023-11-24T01:15:19.042Z,100520.13
2023-11-24T01:25:24.140Z,100511.50
2023-11-24T01:35:27.292Z,100511.63
2023-11-24T01:45:32.876Z,100491.84
2023-11-24T01:55:36.614Z,100515.94
2023-11-24T02:05:41.407Z,100512.53
2023-11-24T02:15:45.681Z,100493.84
2023-11-24T02:25:50.351Z,100522.97
2023-11-24T02:35:55.343Z,100504.38
2023-11-24T02:45:59.689Z,100492.47
2023-11-24T02:56:02.738Z,100506.03
2023-11-24T03:06:07.668Z,100459.59
2023-11-24T03:16:12.066Z,100450.31
2023-11-24T03:26:16.403Z,100441.00
2023-11-24T03:36:19.819Z,100430.81
2023-11-24T03:46:24.618Z,100424.97
2023-11-24T03:56:28.025Z,100438.81
2023-11-24T04:06:32.577Z,100431.28
2023-11-24T04:16:35.745Z,100429.53
2023-11-24T04:26:40.377Z,100417.56
2023-11-24T04:36:43.738Z,100418.41
2023-11-24T04:46:48.355Z,100407.13
2023-11-24T04:56:51.740Z,100403.09
2023-11-24T05:06:56.277Z,100384.34
2023-11-24T05:17:01.028Z,100378.41
2023-11-24T05:27:06.441Z,100387.91
2023-11-24T05:37:10.993Z,100388.06
2023-11-24T05:47:15.747Z,100393.50
2023-11-24T05:57:19.776Z,100381.69
2023-11-24T06:07:25.859Z,100374.84
2023-11-24T06:17:29.134Z,100365.41
2023-11-24T06:27:34.161Z,100355.16
2023-11-24T06:37:37.228Z,100363.66
2023-11-24T06:47:42.356Z,100354.44
2023-11-24T06:57:45.586Z,100348.34
2023-11-24T07:07:50.308Z,100336.34
2023-11-24T07:17:53.677Z,100337.16
2023-11-24T07:27:58.303Z,100323.19
2023-11-24T07:38:02.175Z,100334.00
2023-11-24T07:48:08.407Z,100320.53
2023-11-24T07:58:12.803Z,100332.25
2023-11-24T08:08:17.917Z,100322.44
2023-11-24T08:18:22.554Z,100287.59
2023-11-24T08:28:27.448Z,100271.56
2023-11-24T08:38:30.863Z,100311.63
2023-11-24T08:48:35.947Z,100290.47
2023-11-24T08:58:40.116Z,100276.59
2023-11-24T09:08:46.557Z,100272.81
2023-11-24T09:18:50.802Z,100252.91
2023-11-24T09:28:56.250Z,100246.56
2023-11-24T09:38:59.911Z,100243.56
2023-11-24T09:49:06.917Z,100226.88
2023-11-24T09:59:10.878Z,100215.44
2023-11-24T10:09:26.619Z,100181.25
2023-11-24T10:19:29.879Z,100177.91
2023-11-24T10:29:36.085Z,100165.19
2023-11-24T10:39:45.391Z,100134.63
2023-11-24T10:50:11.251Z,100146.72
2023-11-24T11:00:21.366Z,100146.81
2023-11-24T11:11:16.442Z,100140.06
2023-11-24T11:21:41.081Z,100131.09
2023-11-24T11:31:47.975Z,100128.41
2023-11-24T11:41:54.382Z,100119.31
2023-11-24T11:52:05.498Z,100139.03
2023-11-24T12:02:15.957Z,100130.03
2023-11-24T12:12:24.406Z,100115.91
2023-11-24T12:22:31.457Z,100102.72
2023-11-24T12:32:34.708Z,100102.00
2023-11-24T12:42:39.653Z,100094.22
2023-11-24T12:52:45.379Z,100101.03
2023-11-24T13:02:50.688Z,100100.69
2023-11-24T13:12:55.506Z,100077.75
2023-11-24T13:23:01.085Z,100081.28
2023-11-24T13:33:05.937Z,100061.81
2023-11-24T13:43:12.148Z,100075.31
2023-11-24T13:53:16.130Z,100063.59
2023-11-24T14:03:20.854Z,100056.88
2023-11-24T14:13:24.421Z,100060.25
2023-11-24T14:23:31.146Z,100057.66
2023-11-24T14:33:35.213Z,100069.84
2023-11-24T14:43:40.134Z,100070.63
2023-11-24T14:53:43.356Z,100050.28
2023-11-24T15:03:50.074Z,100040.09
2023-11-24T15:13:55.031Z,100060.59
2023-11-24T15:23:59.818Z,100060.59
2023-11-24T15:34:03.542Z,100059.94
2023-11-24T15:44:11.677Z,100072.09
2023-11-24T15:54:16.416Z,100096.94
2023-11-24T16:04:22.921Z,100092.84
2023-11-24T16:14:27.295Z,100091.16
2023-11-24T16:24:32.657Z,100102.38
2023-11-24T16:34:37.006Z,100089.81
2023-11-24T16:44:41.986Z,100071.16
2023-11-24T16:54:45.312Z,100059.28
2023-11-24T17:04:49.716Z,100057.56
2023-11-24T17:14:53.289Z,100106.16
2023-11-24T17:24:58.152Z,100088.50
2023-11-24T17:35:01.899Z,100086.81
2023-11-24T17:45:16.162Z,100080.88
2023-11-24T17:55:20.232Z,100077.31
2023-11-24T18:05:24.834Z,100069.63
2023-11-24T18:15:28.509Z,100066.22
2023-11-24T18:25:36.247Z,100082.31
2023-11-24T18:35:40.384Z,100086.53
2023-11-24T18:45:45.315Z,100073.84
2023-11-24T18:55:48.818Z,100070.41
2023-11-24T19:05:53.854Z,100065.38
2023-11-24T19:15:58.324Z,100050.94
2023-11-24T19:26:03.038Z,100040.75
2023-11-24T19:36:07.275Z,100027.16
2023-11-24T19:46:11.814Z,100032.28
2023-11-24T19:56:16.201Z,100015.25
2023-11-24T20:06:21.197Z,100006.66
2023-11-24T20:16:24.837Z,99996.47
2023-11-24T20:26:29.471Z,100014.25
2023-11-24T20:36:35.117Z,100012.44
2023-11-24T20:46:40.730Z,100073.75
2023-11-24T20:56:45.859Z,100074.75
2023-11-24T21:06:50.773Z,100089.25
2023-11-24T21:16:55.079Z,100089.28
2023-11-24T21:27:02.026Z,100088.47
2023-11-24T21:37:07.427Z,100106.25
2023-11-24T21:47:12.380Z,100156.31
2023-11-24T21:57:16.196Z,100163.97
2023-11-24T22:07:24.019Z,100179.25
2023-11-24T22:17:28.169Z,100200.50
2023-11-24T22:27:33.505Z,100231.00
2023-11-24T22:37:36.968Z,100247.13
2023-11-24T22:47:43.603Z,100263.25
2023-11-24T22:57:47.417Z,100281.91
2023-11-24T23:07:53.207Z,100279.38
2023-11-24T23:17:57.127Z,100274.28
2023-11-24T23:28:02.020Z,100282.78
2023-11-24T23:38:05.703Z,100296.34
2023-11-24T23:48:11.031Z,100302.28
2023-11-24T23:58:14.276Z,100309.06
